createdAt,value
2023-04-22T00:00:15.414Z,98338.50
2023-04-22T00:02:42.460Z,98338.84
2023-04-22T00:05:28.975Z,98326.94
2023-04-22T00:08:21.445Z,98329.63
2023-04-22T00:11:02.340Z,98341.75
2023-04-22T00:13:49.633Z,98347.09
2023-04-22T00:16:16.689Z,98336.38
2023-04-22T00:18:43.583Z,98338.75
2023-04-22T00:21:10.587Z,98338.56
2023-04-22T00:23:37.509Z,98330.19
2023-04-22T00:26:04.487Z,98326.88
2023-04-22T00:28:31.429Z,98336.56
2023-04-22T00:30:59.059Z,98331.09
2023-04-22T00:33:26.122Z,98334.09
2023-04-22T00:35:54.872Z,98329.56
2023-04-22T00:38:22.192Z,98324.91
2023-04-22T00:40:49.144Z,98324.09
2023-04-22T00:43:17.252Z,98326.13
2023-04-22T00:45:45.085Z,98318.44
2023-04-22T00:48:13.653Z,98325.78
2023-04-22T00:50:40.662Z,98317.44
2023-04-22T00:53:07.581Z,98290.66
2023-04-22T00:55:35.106Z,98321.63
2023-04-22T00:58:03.893Z,98330.81
2023-04-22T01:00:31.186Z,98330.59
2023-04-22T01:02:58.824Z,98322.59
2023-04-22T01:05:47.152Z,98330.75
2023-04-22T01:08:33.498Z,98328.91
2023-04-22T01:11:31.830Z,98319.91
2023-04-22T01:14:20.712Z,98322.78
2023-04-22T01:17:04.694Z,98304.19
2023-04-22T01:19:33.209Z,98321.59
2023-04-22T01:22:02.400Z,98324.09
2023-04-22T01:24:29.402Z,98322.25
2023-04-22T01:26:56.381Z,98325.09
2023-04-22T01:29:23.498Z,98322.56
2023-04-22T01:31:51.004Z,98327.25
2023-04-22T01:34:18.181Z,98319.06
2023-04-22T01:36:45.245Z,98319.41
2023-04-22T01:39:12.202Z,98322.44
2023-04-22T01:41:39.399Z,98317.59
2023-04-22T01:44:06.528Z,98317.09
2023-04-22T01:46:34.078Z,98304.56
2023-04-22T01:49:01.056Z,98327.63
2023-04-22T01:51:28.127Z,98318.75
2023-04-22T01:53:55.057Z,98316.09
2023-04-22T01:56:22.096Z,98325.28
2023-04-22T01:58:49.626Z,98318.56
2023-04-22T02:01:16.526Z,98323.09
2023-04-22T02:03:43.523Z,98323.78
2023-04-22T02:06:10.483Z,98321.94
2023-04-22T02:08:38.493Z,98313.41
2023-04-22T02:11:05.582Z,98324.91
2023-04-22T02:13:37.061Z,98323.06
2023-04-22T02:16:04.483Z,98323.75
2023-04-22T02:18:31.444Z,98316.19
2023-04-22T02:20:58.457Z,98321.19
2023-04-22T02:23:25.969Z,98326.03
2023-04-22T02:25:53.412Z,98320.19
2023-04-22T02:28:20.291Z,98325.38
2023-04-22T02:30:47.308Z,98316.00
2023-04-22T02:33:14.232Z,98322.34
2023-04-22T02:35:41.151Z,98311.63
2023-04-22T02:38:08.194Z,98319.81
2023-04-22T02:40:35.145Z,98320.88
2023-04-22T02:43:02.157Z,98315.66
2023-04-22T02:45:29.147Z,98316.66
2023-04-22T02:47:56.060Z,98314.25
2023-04-22T02:50:23.041Z,98321.09
2023-04-22T02:52:49.947Z,98318.22
2023-04-22T02:55:16.829Z,98317.59
2023-04-22T02:57:43.803Z,98316.06
2023-04-22T03:00:11.121Z,98316.91
2023-04-22T03:02:39.092Z,98316.53
2023-04-22T03:05:06.537Z,98314.22
2023-04-22T03:07:33.432Z,98307.63
2023-04-22T03:10:00.421Z,98320.75
2023-04-22T03:12:27.312Z,98322.78
2023-04-22T03:14:54.206Z,98311.41
2023-04-22T03:17:21.367Z,98317.91
2023-04-22T03:19:48.296Z,98316.56
2023-04-22T03:22:15.258Z,98315.34
2023-04-22T03:24:42.169Z,98313.38
2023-04-22T03:27:10.999Z,98317.06
2023-04-22T03:29:38.305Z,98320.44
2023-04-22T03:32:05.571Z,98321.78
2023-04-22T03:34:32.516Z,98323.41
2023-04-22T03:36:59.440Z,98313.38
2023-04-22T03:39:26.329Z,98323.25
2023-04-22T03:41:53.261Z,98325.78
2023-04-22T03:44:20.176Z,98318.44
2023-04-22T03:46:47.051Z,98328.78
2023-04-22T03:49:14.355Z,98328.63
2023-04-22T03:51:41.252Z,98326.41
2023-04-22T03:54:08.127Z,98325.38
2023-04-22T03:56:35.116Z,98323.84
2023-04-22T03:59:02.038Z,98328.72
2023-04-22T04:01:28.976Z,98329.75
2023-04-22T04:03:56.069Z,98317.69
2023-04-22T04:06:23.148Z,98331.34
2023-04-22T04:08:50.089Z,98332.66
2023-04-22T04:11:16.944Z,98327.19
2023-04-22T04:13:43.824Z,98335.91
2023-04-22T04:16:10.914Z,98337.81
2023-04-22T04:18:38.834Z,98339.53
2023-04-22T04:21:05.951Z,98334.19
2023-04-22T04:23:32.861Z,98339.72
2023-04-22T04:26:03.083Z,98328.53
2023-04-22T04:28:33.524Z,98329.28
2023-04-22T04:31:02.923Z,98331.97
2023-04-22T04:33:32.728Z,98331.47
2023-04-22T04:36:00.456Z,98334.03
2023-04-22T04:38:27.403Z,98337.38
2023-04-22T04:40:54.747Z,98339.69
2023-04-22T04:43:26.184Z,98338.03
2023-04-22T04:45:53.687Z,98349.09
2023-04-22T04:48:21.016Z,98342.13
2023-04-22T04:50:47.949Z,98329.97
2023-04-22T04:53:14.905Z,98338.47
2023-04-22T04:55:41.914Z,98352.53
2023-04-22T04:58:08.805Z,98344.69
2023-04-22T05:00:35.818Z,98348.53
2023-04-22T05:03:02.877Z,98346.19
2023-04-22T05:05:30.187Z,98348.00
2023-04-22T05:07:57.064Z,98339.44
2023-04-22T05:10:24.855Z,98339.75
2023-04-22T05:12:51.803Z,98330.84
2023-04-22T05:15:18.879Z,98336.59
2023-04-22T05:17:45.891Z,98333.69
2023-04-22T05:20:12.915Z,98333.72
2023-04-22T05:22:43.361Z,98336.13
2023-04-22T05:25:11.052Z,98335.50
2023-04-22T05:27:37.924Z,98335.00
2023-04-22T05:30:05.697Z,98331.72
2023-04-22T05:32:32.737Z,98331.38
2023-04-22T05:34:59.644Z,98335.31
2023-04-22T05:37:26.602Z,98324.34
2023-04-22T05:39:53.483Z,98337.53
2023-04-22T05:42:20.547Z,98335.38
2023-04-22T05:44:47.466Z,98330.31
2023-04-22T05:47:14.406Z,98336.38
2023-04-22T05:49:41.589Z,98331.13
2023-04-22T05:52:09.027Z,98334.44
2023-04-22T05:54:36.148Z,98336.88
2023-04-22T05:57:03.286Z,98331.56
2023-04-22T05:59:30.873Z,98333.22
2023-04-22T06:01:58.088Z,98330.66
2023-04-22T06:04:25.276Z,98328.56
2023-04-22T06:06:55.165Z,98338.06
2023-04-22T06:09:22.636Z,98334.31
2023-04-22T06:11:49.594Z,98339.84
2023-04-22T06:14:16.546Z,98343.47
2023-04-22T06:16:43.543Z,98337.75
2023-04-22T06:19:10.611Z,98341.19
2023-04-22T06:21:40.196Z,98341.97
2023-04-22T06:24:07.184Z,98341.78
2023-04-22T06:26:34.216Z,98351.63
2023-04-22T06:29:03.120Z,98339.84
2023-04-22T06:31:30.186Z,98345.91
2023-04-22T06:33:57.276Z,98334.84
2023-04-22T06:36:24.749Z,98342.22
2023-04-22T06:38:51.619Z,98341.50
2023-04-22T06:41:18.645Z,98338.50
2023-04-22T06:43:45.670Z,98337.00
2023-04-22T06:46:12.670Z,98347.84
2023-04-22T06:48:39.580Z,98330.34
2023-04-22T06:51:06.536Z,98341.47
2023-04-22T06:53:33.469Z,98338.06
2023-04-22T06:56:00.445Z,98340.31
2023-04-22T06:58:27.332Z,98331.44
2023-04-22T07:00:54.242Z,98329.38
2023-04-22T07:03:21.208Z,98330.09
2023-04-22T07:05:48.916Z,98330.94
2023-04-22T07:08:16.391Z,98337.06
2023-04-22T07:10:43.523Z,98337.69
2023-04-22T07:13:10.407Z,98347.03
2023-04-22T07:15:37.368Z,98334.94
2023-04-22T07:18:04.466Z,98340.47
2023-04-22T07:20:31.594Z,98341.25
2023-04-22T07:22:58.536Z,98337.22
2023-04-22T07:25:25.536Z,98344.69
2023-04-22T07:27:52.487Z,98337.50
2023-04-22T07:30:19.371Z,98341.44
2023-04-22T07:32:48.335Z,98332.28
2023-04-22T07:35:15.990Z,98338.31
2023-04-22T07:37:42.937Z,98327.59
2023-04-22T07:40:12.370Z,98340.38
2023-04-22T07:42:40.614Z,98335.81
2023-04-22T07:45:08.002Z,98332.41
2023-04-22T07:47:35.103Z,98330.28
2023-04-22T07:50:02.182Z,98322.06
2023-04-22T07:52:30.201Z,98329.75
2023-04-22T07:54:57.444Z,98327.56
2023-04-22T07:57:24.333Z,98330.94
2023-04-22T07:59:52.501Z,98331.78
2023-04-22T08:02:19.595Z,98326.69
2023-04-22T08:04:46.738Z,98331.78
2023-04-22T08:07:30.850Z,98334.72
2023-04-22T08:10:00.046Z,98320.16
2023-04-22T08:12:27.188Z,98324.22
2023-04-22T08:14:54.433Z,98324.44
2023-04-22T08:17:22.358Z,98332.78
2023-04-22T08:19:49.823Z,98327.88
2023-04-22T08:22:18.765Z,98328.53
2023-04-22T08:24:45.891Z,98330.69
2023-04-22T08:27:12.974Z,98319.88
2023-04-22T08:29:40.133Z,98326.47
2023-04-22T08:32:07.391Z,98322.78
2023-04-22T08:34:34.278Z,98320.88
2023-04-22T08:37:01.232Z,98314.91
2023-04-22T08:39:28.273Z,98320.69
2023-04-22T08:41:59.018Z,98317.31
2023-04-22T08:44:26.561Z,98309.31
2023-04-22T08:46:54.880Z,98303.63
2023-04-22T08:49:24.798Z,98307.53
2023-04-22T08:51:53.219Z,98314.75
2023-04-22T08:54:20.248Z,98316.22
2023-04-22T08:56:50.926Z,98311.56
2023-04-22T08:59:20.696Z,98309.31
2023-04-22T09:01:52.306Z,98315.44
2023-04-22T09:04:20.117Z,98309.25
2023-04-22T09:06:47.130Z,98305.22
2023-04-22T09:09:14.679Z,98306.06
2023-04-22T09:11:42.261Z,98299.44
2023-04-22T09:14:09.211Z,98302.53
2023-04-22T09:16:44.764Z,98297.66
2023-04-22T09:19:13.380Z,98303.59
2023-04-22T09:21:41.655Z,98301.00
2023-04-22T09:24:11.116Z,98296.00
2023-04-22T09:26:42.704Z,98302.94
2023-04-22T09:29:17.272Z,98290.06
2023-04-22T09:31:53.552Z,98291.47
2023-04-22T09:34:22.450Z,98290.28
2023-04-22T09:36:52.320Z,98277.13
2023-04-22T09:39:19.236Z,98279.03
2023-04-22T09:41:54.369Z,98278.63
2023-04-22T09:44:21.288Z,98277.53
2023-04-22T09:46:50.327Z,98277.47
2023-04-22T09:49:18.220Z,98254.25
2023-04-22T09:51:45.096Z,98266.91
2023-04-22T09:54:12.459Z,98270.84
2023-04-22T09:56:49.637Z,98260.16
2023-04-22T09:59:21.314Z,98262.41
2023-04-22T10:01:49.408Z,98256.91
2023-04-22T10:04:21.511Z,98259.75
2023-04-22T10:06:49.105Z,98253.16
2023-04-22T10:09:20.623Z,98258.75
2023-04-22T10:11:49.248Z,98261.16
2023-04-22T10:14:16.359Z,98239.78
2023-04-22T10:16:47.972Z,98255.94
2023-04-22T10:19:22.397Z,98242.09
2023-04-22T10:21:54.093Z,98240.97
2023-04-22T10:24:21.633Z,98247.50
2023-04-22T10:26:51.967Z,98245.53
2023-04-22T10:29:20.804Z,98245.56
2023-04-22T10:32:25.256Z,98235.72
2023-04-22T10:35:09.227Z,98238.56
2023-04-22T10:37:36.367Z,98238.81
2023-04-22T10:40:16.215Z,98244.91
2023-04-22T10:42:49.927Z,98238.22
2023-04-22T10:45:17.088Z,98237.19
2023-04-22T10:47:44.779Z,98241.31
2023-04-22T10:50:21.890Z,98235.81
2023-04-22T10:52:56.630Z,98221.66
2023-04-22T10:55:24.019Z,98224.22
2023-04-22T10:57:52.541Z,98226.38
2023-04-22T11:00:21.079Z,98233.63
2023-04-22T11:02:53.432Z,98214.59
2023-04-22T11:05:25.369Z,98223.16
2023-04-22T11:08:02.107Z,98216.03
2023-04-22T11:10:44.144Z,98217.38
2023-04-22T11:13:16.721Z,98215.75
2023-04-22T11:15:46.816Z,98209.19
2023-04-22T11:18:22.567Z,98164.38
2023-04-22T11:20:51.011Z,98215.22
2023-04-22T11:23:20.535Z,98205.84
2023-04-22T11:25:47.823Z,98205.56
2023-04-22T11:28:14.785Z,98201.66
2023-04-22T11:30:41.813Z,98208.03
2023-04-22T11:33:09.141Z,98193.75
2023-04-22T11:35:51.393Z,98199.28
2023-04-22T11:38:18.416Z,98203.03
2023-04-22T11:40:49.011Z,98187.38
2023-04-22T11:43:16.350Z,98201.97
2023-04-22T11:45:43.404Z,98197.28
2023-04-22T11:48:12.080Z,98190.72
2023-04-22T11:50:40.957Z,98186.56
2023-04-22T11:53:26.110Z,98189.63
2023-04-22T11:55:53.113Z,98180.34
2023-04-22T11:58:29.106Z,98183.34
2023-04-22T12:00:58.681Z,98188.56
2023-04-22T12:03:30.216Z,98190.22
2023-04-22T12:06:05.666Z,98191.88
2023-04-22T12:08:44.491Z,98183.06
2023-04-22T12:11:12.680Z,98194.63
2023-04-22T12:13:42.973Z,98180.31
2023-04-22T12:16:14.926Z,98174.50
2023-04-22T12:18:49.411Z,98182.47
2023-04-22T12:21:19.256Z,98186.84
2023-04-22T12:23:59.116Z,98170.41
2023-04-22T12:26:27.737Z,98174.47
2023-04-22T12:28:57.917Z,98149.47
2023-04-22T12:31:25.521Z,98172.56
2023-04-22T12:33:53.925Z,98159.59
2023-04-22T12:36:21.775Z,98166.25
2023-04-22T12:38:48.833Z,98169.84
2023-04-22T12:41:16.745Z,98170.91
2023-04-22T12:43:43.719Z,98167.31
2023-04-22T12:46:11.030Z,98169.59
2023-04-22T12:48:38.129Z,98162.69
2023-04-22T12:51:06.143Z,98161.09
2023-04-22T12:53:33.244Z,98161.06
2023-04-22T12:56:00.224Z,98154.50
2023-04-22T12:58:27.375Z,98149.00
2023-04-22T13:01:01.349Z,98151.75
2023-04-22T13:03:29.505Z,98146.00
2023-04-22T13:05:59.086Z,98142.94
2023-04-22T13:08:30.227Z,98142.72
2023-04-22T13:11:01.528Z,98145.44
2023-04-22T13:13:29.959Z,98139.09
2023-04-22T13:15:58.229Z,98133.84
2023-04-22T13:18:26.401Z,98139.34
2023-04-22T13:20:58.410Z,98143.16
2023-04-22T13:23:29.575Z,98116.75
2023-04-22T13:26:00.164Z,98124.94
2023-04-22T13:28:29.833Z,98129.38
2023-04-22T13:30:58.773Z,98125.78
2023-04-22T13:33:28.580Z,98120.09
2023-04-22T13:35:56.719Z,98117.63
2023-04-22T13:38:24.704Z,98118.72
2023-04-22T13:40:51.685Z,98116.03
2023-04-22T13:43:18.654Z,98125.34
2023-04-22T13:45:45.783Z,98123.94
2023-04-22T13:48:12.721Z,98115.47
2023-04-22T13:50:42.930Z,98104.97
2023-04-22T13:53:11.988Z,98104.97
2023-04-22T13:55:39.855Z,98115.44
2023-04-22T13:58:07.915Z,98115.50
2023-04-22T14:00:35.437Z,98110.84
2023-04-22T14:03:02.871Z,98105.06
2023-04-22T14:05:29.930Z,98110.03
2023-04-22T14:07:57.021Z,98099.56
2023-04-22T14:10:24.781Z,98102.81
2023-04-22T14:12:53.113Z,98106.34
2023-04-22T14:15:20.008Z,98103.81
2023-04-22T14:17:49.717Z,98097.28
2023-04-22T14:20:16.987Z,98101.72
2023-04-22T14:22:43.865Z,98098.47
2023-04-22T14:25:11.030Z,98102.84
2023-04-22T14:27:38.185Z,98092.66
2023-04-22T14:30:06.743Z,98086.31
2023-04-22T14:32:33.775Z,98090.41
2023-04-22T14:35:00.728Z,98086.31
2023-04-22T14:37:27.772Z,98075.31
2023-04-22T14:39:54.702Z,98086.50
2023-04-22T14:42:22.009Z,98074.59
2023-04-22T14:44:48.900Z,98081.88
2023-04-22T14:47:15.864Z,98087.22
2023-04-22T14:49:42.798Z,98086.94
2023-04-22T14:52:09.783Z,98074.81
2023-04-22T14:54:36.707Z,98079.50
2023-04-22T14:57:04.384Z,98085.75
2023-04-22T14:59:31.391Z,98082.16
2023-04-22T15:01:58.454Z,98069.19
2023-04-22T15:04:25.547Z,98071.94
2023-04-22T15:06:57.643Z,98074.47
2023-04-22T15:09:24.842Z,98072.78
2023-04-22T15:11:54.337Z,98071.91
2023-04-22T15:14:21.264Z,98069.19
2023-04-22T15:16:48.168Z,98060.84
2023-04-22T15:19:15.157Z,98069.13
2023-04-22T15:21:42.002Z,98065.03
2023-04-22T15:24:08.894Z,98068.59
2023-04-22T15:26:35.856Z,98065.34
2023-04-22T15:29:03.677Z,98068.41
2023-04-22T15:31:30.592Z,98070.03
2023-04-22T15:33:57.515Z,98071.63
2023-04-22T15:36:24.366Z,98055.84
2023-04-22T15:38:58.094Z,98064.81
2023-04-22T15:41:26.257Z,98058.44
2023-04-22T15:43:53.356Z,98063.72
2023-04-22T15:46:21.232Z,98055.41
2023-04-22T15:48:49.083Z,98063.09
2023-04-22T15:51:17.216Z,98059.78
2023-04-22T15:53:47.793Z,98058.44
2023-04-22T15:56:15.748Z,98058.44
2023-04-22T15:58:42.647Z,98051.28
2023-04-22T16:01:18.877Z,98066.19
2023-04-22T16:03:50.284Z,98053.56
2023-04-22T16:06:20.299Z,98058.81
2023-04-22T16:08:47.303Z,98065.44
2023-04-22T16:11:15.795Z,98066.53
2023-04-22T16:13:43.276Z,98056.91
2023-04-22T16:16:11.401Z,98053.34
2023-04-22T16:18:38.585Z,98059.94
2023-04-22T16:21:05.662Z,98058.34
2023-04-22T16:23:33.700Z,98052.88
2023-04-22T16:26:02.940Z,98058.94
2023-04-22T16:28:29.912Z,98068.84
2023-04-22T16:30:56.964Z,98060.34
2023-04-22T16:33:25.153Z,98064.72
2023-04-22T16:35:52.162Z,98058.41
2023-04-22T16:38:19.090Z,98058.97
2023-04-22T16:40:46.041Z,98061.97
2023-04-22T16:43:13.153Z,98060.88
2023-04-22T16:45:40.185Z,98062.22
2023-04-22T16:48:07.145Z,98058.09
2023-04-22T16:50:34.210Z,98062.22
2023-04-22T16:53:01.097Z,98054.03
2023-04-22T16:55:27.999Z,98060.56
2023-04-22T16:57:54.945Z,98057.22
2023-04-22T17:00:24.249Z,98050.56
2023-04-22T17:02:51.306Z,98038.94
2023-04-22T17:05:18.484Z,98047.91
2023-04-22T17:07:45.403Z,98000.09
2023-04-22T17:10:12.311Z,98039.59
2023-04-22T17:12:39.525Z,98053.59
2023-04-22T17:15:07.088Z,98053.63
2023-04-22T17:17:33.979Z,98055.94
2023-04-22T17:20:01.036Z,98047.38
2023-04-22T17:22:28.077Z,98052.78
2023-04-22T17:24:56.872Z,98056.63
2023-04-22T17:27:23.779Z,98052.72
2023-04-22T17:29:50.813Z,98062.94
2023-04-22T17:32:17.805Z,98067.41
2023-04-22T17:34:44.718Z,98054.47
2023-04-22T17:37:11.627Z,98064.72
2023-04-22T17:39:40.106Z,98073.84
2023-04-22T17:42:07.171Z,98071.78
2023-04-22T17:44:34.095Z,98068.91
2023-04-22T17:47:01.096Z,98078.91
2023-04-22T17:49:28.098Z,98066.19
2023-04-22T17:51:55.112Z,98074.19
2023-04-22T17:54:22.048Z,98078.16
2023-04-22T17:56:48.975Z,98082.09
2023-04-22T17:59:15.948Z,98080.28
2023-04-22T18:01:43.408Z,98086.44
2023-04-22T18:04:10.566Z,98087.31
2023-04-22T18:06:37.616Z,98089.25
2023-04-22T18:09:04.612Z,98086.50
2023-04-22T18:11:32.233Z,98093.13
2023-04-22T18:14:00.285Z,98096.84
2023-04-22T18:16:29.298Z,98089.50
2023-04-22T18:19:00.466Z,98093.69
2023-04-22T18:21:30.432Z,98100.44
2023-04-22T18:23:57.589Z,98098.69
2023-04-22T18:26:26.764Z,98105.19
2023-04-22T18:28:55.239Z,98101.75
2023-04-22T18:31:24.511Z,98101.56
2023-04-22T18:33:53.131Z,98102.56
2023-04-22T18:36:22.831Z,98099.50
2023-04-22T18:38:51.650Z,98096.41
2023-04-22T18:41:21.060Z,98103.38
2023-04-22T18:43:50.732Z,98109.41
2023-04-22T18:46:18.436Z,98112.38
2023-04-22T18:49:19.594Z,98112.88
2023-04-22T18:51:50.263Z,98103.84
2023-04-22T18:54:19.555Z,98106.00
2023-04-22T18:56:48.450Z,98118.63
2023-04-22T18:59:17.462Z,98108.69
2023-04-22T19:01:46.410Z,98110.22
2023-04-22T19:04:15.653Z,98116.13
2023-04-22T19:06:44.974Z,98112.91
2023-04-22T19:09:13.449Z,98114.06
2023-04-22T19:11:42.821Z,98120.88
2023-04-22T19:14:12.044Z,98112.84
2023-04-22T19:16:41.249Z,98114.81
2023-04-22T19:19:10.274Z,98113.72
2023-04-22T19:21:40.622Z,98107.94
2023-04-22T19:24:10.826Z,98106.59
2023-04-22T19:27:13.894Z,98109.13
2023-04-22T19:29:43.946Z,98115.94
2023-04-22T19:32:13.820Z,98108.69
2023-04-22T19:34:44.610Z,98111.63
2023-04-22T19:37:13.917Z,98109.16
2023-04-22T19:39:43.198Z,98112.19
2023-04-22T19:42:13.134Z,98108.84
2023-04-22T19:44:44.214Z,98111.41
2023-04-22T19:47:13.845Z,98099.06
2023-04-22T19:49:41.683Z,98106.38
2023-04-22T19:52:11.315Z,98100.81
2023-04-22T19:54:41.164Z,98105.25
2023-04-22T19:57:08.407Z,98095.97
2023-04-22T19:59:35.740Z,98103.28
2023-04-22T20:02:02.848Z,98095.38
2023-04-22T20:04:30.349Z,98095.81
2023-04-22T20:06:59.022Z,98097.09
2023-04-22T20:09:27.704Z,98072.91
2023-04-22T20:11:55.293Z,98093.25
2023-04-22T20:14:22.878Z,98094.97
2023-04-22T20:16:50.158Z,98099.78
2023-04-22T20:19:17.343Z,98095.88
2023-04-22T20:21:48.156Z,98097.13
2023-04-22T20:24:20.063Z,98098.19
2023-04-22T20:26:50.320Z,98084.69
2023-04-22T20:29:21.343Z,98099.28
2023-04-22T20:31:48.551Z,98101.41
2023-04-22T20:34:15.798Z,98093.34
2023-04-22T20:36:43.096Z,98101.66
2023-04-22T20:39:14.465Z,98103.41
2023-04-22T20:41:41.806Z,98071.19
2023-04-22T20:44:10.416Z,98091.34
2023-04-22T20:46:38.093Z,98091.75
2023-04-22T20:49:07.010Z,98084.03
2023-04-22T20:51:34.169Z,98095.22
2023-04-22T20:54:01.096Z,98090.84
2023-04-22T20:56:29.734Z,98090.84
2023-04-22T20:58:58.400Z,98092.31
2023-04-22T21:01:27.663Z,98060.56
2023-04-22T21:03:57.804Z,98094.81
2023-04-22T21:06:28.367Z,98079.44
2023-04-22T21:08:56.206Z,98092.78
2023-04-22T21:11:23.720Z,98085.78
2023-04-22T21:13:52.232Z,98082.47
2023-04-22T21:16:19.954Z,98083.63
2023-04-22T21:18:48.895Z,98081.88
2023-04-22T21:21:23.764Z,98083.41
2023-04-22T21:23:52.646Z,98078.31
2023-04-22T21:26:19.732Z,98082.50
2023-04-22T21:28:46.978Z,98087.47
2023-04-22T21:31:14.261Z,98086.13
2023-04-22T21:33:41.213Z,98089.66
2023-04-22T21:36:08.193Z,98085.59
2023-04-22T21:38:35.118Z,98092.28
2023-04-22T21:41:02.194Z,98098.53
2023-04-22T21:43:29.836Z,98092.13
2023-04-22T21:45:56.804Z,98091.91
2023-04-22T21:48:23.646Z,98090.25
2023-04-22T21:50:50.556Z,98073.06
2023-04-22T21:53:19.624Z,98087.38
2023-04-22T21:55:46.594Z,98090.28
2023-04-22T21:58:13.863Z,98098.38
2023-04-22T22:00:40.651Z,98099.00
2023-04-22T22:03:07.608Z,98091.31
2023-04-22T22:05:34.808Z,98091.34
2023-04-22T22:08:02.067Z,98093.19
2023-04-22T22:10:28.891Z,98084.88
2023-04-22T22:12:55.736Z,98084.84
2023-04-22T22:15:22.561Z,98089.19
2023-04-22T22:17:50.889Z,98079.41
2023-04-22T22:20:20.655Z,98040.88
2023-04-22T22:22:48.082Z,98065.44
2023-04-22T22:25:16.352Z,98091.25
2023-04-22T22:27:47.006Z,98089.97
2023-04-22T22:30:14.736Z,98091.53
2023-04-22T22:32:41.844Z,98081.16
2023-04-22T22:35:09.099Z,98087.16
2023-04-22T22:37:36.586Z,98077.41
2023-04-22T22:40:04.149Z,98090.22
2023-04-22T22:42:31.237Z,98079.59
2023-04-22T22:44:58.169Z,98084.81
2023-04-22T22:47:25.917Z,98086.47
2023-04-22T22:49:53.686Z,98081.47
2023-04-22T22:52:20.751Z,98088.88
2023-04-22T22:54:48.854Z,98076.56
2023-04-22T22:57:15.925Z,98098.47
2023-04-22T22:59:42.842Z,98083.16
2023-04-22T23:02:10.089Z,98085.72
2023-04-22T23:04:37.723Z,98101.03
2023-04-22T23:07:04.726Z,98088.25
2023-04-22T23:09:31.917Z,98088.41
2023-04-22T23:11:58.837Z,98091.63
2023-04-22T23:14:28.739Z,98091.41
2023-04-22T23:16:55.699Z,98096.63
2023-04-22T23:19:23.645Z,98087.13
2023-04-22T23:21:50.856Z,98097.00
2023-04-22T23:24:18.031Z,98075.56
2023-04-22T23:26:45.161Z,98081.75
2023-04-22T23:29:12.508Z,98090.19
2023-04-22T23:31:40.923Z,98083.25
2023-04-22T23:34:08.306Z,98091.56
2023-04-22T23:36:37.579Z,98090.56
2023-04-22T23:39:06.022Z,98082.59
2023-04-22T23:41:33.612Z,98088.72
2023-04-22T23:44:00.577Z,98091.22
2023-04-22T23:46:27.778Z,98083.72
2023-04-22T23:48:55.099Z,98068.75
2023-04-22T23:51:22.127Z,98073.91
2023-04-22T23:53:49.059Z,98072.72
2023-04-22T23:56:20.352Z,98055.78
2023-04-22T23:58:48.805Z,98087.44
